Time;durP1;ratioP1;P1;durP2;ratioP2;P2;SDS_P1;SDS_P2;PMS_P1;PMS_P2;Temp;Humidity;BMP_temperature;BMP_pressure;BME280_temperature;BME280_humidity;BME280_pressure;Samples;Min_cycle;Max_cycle;Signal;HPM_P1;HPM_P2
2023/06/16 00:09:23;;;;;;;6.77;4.40;;;;;;;;;;4973931;28;20054;-60
2023/06/16 00:11:49;;;;;;;7.30;4.37;;;;;;;;;;4973878;28;20054;-60
2023/06/16 00:14:15;;;;;;;7.37;4.00;;;;;;;;;;4973428;28;20043;-60
2023/06/16 00:16:43;;;;;;;7.20;3.93;;;;;;;;;;4955819;28;20416;-60
2023/06/16 00:19:09;;;;;;;8.73;3.90;;;;;;;;;;4973860;28;20058;-59
2023/06/16 00:21:38;;;;;;;6.37;4.27;;;;;;;;;;4973552;28;20046;-60
2023/06/16 00:31:16;;;;;;;5.60;3.50;;;;;;;;;;4972987;28;20042;-60
2023/06/16 00:33:42;;;;;;;;;;;;;;;;;;4973887;28;20058;-60
2023/06/16 00:36:08;;;;;;;6.57;4.00;;;;;;;;;;4973415;28;19926;-60
2023/06/16 00:38:34;;;;;;;10.63;4.50;;;;;;;;;;4973531;28;20054;-60
2023/06/16 00:41:01;;;;;;;14.23;4.70;;;;;;;;;;4972904;28;20501;-60
2023/06/16 00:43:27;;;;;;;10.33;4.50;;;;;;;;;;4973272;28;20053;-60
2023/06/16 00:45:53;;;;;;;8.80;4.97;;;;;;;;;;4973398;28;20050;-60
2023/06/16 00:48:20;;;;;;;10.90;5.17;;;;;;;;;;4972970;28;20126;-60
2023/06/16 00:50:47;;;;;;;12.40;4.93;;;;;;;;;;4973258;28;20047;-59
2023/06/16 00:53:13;;;;;;;10.13;4.67;;;;;;;;;;4973155;28;20077;-60
2023/06/16 00:55:40;;;;;;;13.37;5.67;;;;;;;;;;4973068;28;20051;-60
2023/06/16 00:58:07;;;;;;;8.50;5.17;;;;;;;;;;4972569;28;20043;-60
2023/06/16 01:00:36;;;;;;;7.17;4.67;;;;;;;;;;4973163;28;20046;-60
2023/06/16 01:03:05;;;;;;;12.03;5.47;;;;;;;;;;4973153;28;20058;-60
2023/06/16 01:05:32;;;;;;;12.70;5.20;;;;;;;;;;4972823;28;20058;-60
2023/06/16 01:08:04;;;;;;;8.50;5.13;;;;;;;;;;4981643;28;20050;-60
2023/06/16 01:10:42;;;;;;;12.03;5.90;;;;;;;;;;4992087;28;20427;-60
2023/06/16 01:13:32;;;;;;;9.30;6.00;;;;;;;;;;4992292;28;20173;-60
2023/06/16 01:16:00;;;;;;;14.13;5.57;;;;;;;;;;4991653;28;20050;-60
2023/06/16 01:18:27;;;;;;;11.03;5.37;;;;;;;;;;4992012;28;20057;-60
2023/06/16 01:20:56;;;;;;;6.73;5.30;;;;;;;;;;4991942;28;20109;-60
2023/06/16 01:23:52;;;;;;;9.93;6.40;;;;;;;;;;4991518;28;20153;-60
2023/06/16 01:26:22;;;;;;;11.30;5.53;;;;;;;;;;4991574;28;20081;-60
2023/06/16 01:28:49;;;;;;;10.13;5.57;;;;;;;;;;4992037;28;20054;-60
2023/06/16 01:31:16;;;;;;;7.07;5.37;;;;;;;;;;4991948;28;20046;-60
2023/06/16 01:33:42;;;;;;;6.87;5.10;;;;;;;;;;4991587;28;20240;-60
2023/06/16 01:36:08;;;;;;;15.20;5.87;;;;;;;;;;4974133;28;20054;-60
2023/06/16 01:38:35;;;;;;;7.23;5.20;;;;;;;;;;4991532;28;20050;-60
2023/06/16 01:41:02;;;;;;;8.87;5.87;;;;;;;;;;4991984;28;20424;-60
2023/06/16 01:43:29;;;;;;;11.27;5.73;;;;;;;;;;4991759;28;20119;-60
2023/06/16 01:45:57;;;;;;;6.23;5.20;;;;;;;;;;4991110;28;20046;-60
2023/06/16 01:48:23;;;;;;;12.37;6.23;;;;;;;;;;4991162;28;20043;-60
2023/06/16 01:50:50;;;;;;;7.47;6.00;;;;;;;;;;4991614;28;20129;-60
2023/06/16 01:53:16;;;;;;;10.30;6.40;;;;;;;;;;4991425;28;20039;-60
2023/06/16 01:55:49;;;;;;;11.70;6.97;;;;;;;;;;4991270;28;20101;-60
2023/06/16 01:58:16;;;;;;;15.43;7.45;;;;;;;;;;4990720;28;20050;-60
2023/06/16 02:00:50;;;;;;;10.73;6.87;;;;;;;;;;4991527;28;20259;-60
2023/06/16 02:03:35;;;;;;;9.93;7.20;;;;;;;;;;4991338;28;20097;-60
2023/06/16 02:06:03;;;;;;;9.60;7.20;;;;;;;;;;4990972;28;20424;-60
2023/06/16 02:08:30;;;;;;;9.53;7.07;;;;;;;;;;4991247;28;20046;-60
2023/06/16 02:10:56;;;;;;;13.63;8.43;;;;;;;;;;4991008;28;20073;-60
2023/06/16 02:13:22;;;;;;;10.00;7.33;;;;;;;;;;4991277;28;20050;-60
2023/06/16 02:15:48;;;;;;;11.50;7.07;;;;;;;;;;4991112;28;20054;-60
2023/06/16 02:18:15;;;;;;;10.07;6.40;;;;;;;;;;4990161;28;20096;-60
2023/06/16 02:20:41;;;;;;;12.97;6.30;;;;;;;;;;4990168;28;20560;-60
2023/06/16 02:23:07;;;;;;;13.27;6.67;;;;;;;;;;4990424;28;20050;-60
2023/06/16 02:25:33;;;;;;;9.40;6.73;;;;;;;;;;4990090;28;20546;-60
2023/06/16 02:27:59;;;;;;;13.37;7.17;;;;;;;;;;4989805;28;20046;-60
2023/06/16 02:30:25;;;;;;;11.03;7.30;;;;;;;;;;4990168;28;20492;-60
2023/06/16 02:32:51;;;;;;;10.13;7.23;;;;;;;;;;4989603;28;20055;-60
2023/06/16 02:35:17;;;;;;;12.40;7.53;;;;;;;;;;4990042;28;20046;-60
2023/06/16 02:37:43;;;;;;;10.80;8.03;;;;;;;;;;4989912;28;20128;-60
2023/06/16 02:40:09;;;;;;;10.77;8.07;;;;;;;;;;4990339;28;20054;-60
2023/06/16 02:42:35;;;;;;;13.90;7.67;;;;;;;;;;4989548;28;20046;-60
2023/06/16 02:45:01;;;;;;;11.23;8.10;;;;;;;;;;4989652;28;20061;-60
2023/06/16 02:47:27;;;;;;;11.07;7.80;;;;;;;;;;4989963;28;20145;-60
2023/06/16 02:49:54;;;;;;;12.47;8.47;;;;;;;;;;4989839;28;20180;-60
2023/06/16 02:52:20;;;;;;;10.97;8.40;;;;;;;;;;4989229;28;20057;-60
2023/06/16 02:54:47;;;;;;;9.40;7.53;;;;;;;;;;4989616;28;20046;-60
2023/06/16 02:57:13;;;;;;;11.30;7.80;;;;;;;;;;4989807;28;20100;-60
2023/06/16 02:59:39;;;;;;;11.40;7.70;;;;;;;;;;4989622;28;20042;-60
2023/06/16 03:02:05;;;;;;;10.33;7.70;;;;;;;;;;4989368;28;20042;-60
2023/06/16 03:04:31;;;;;;;10.47;7.53;;;;;;;;;;4989791;28;20054;-60
2023/06/16 03:06:57;;;;;;;9.97;6.97;;;;;;;;;;4988699;28;20468;-60
2023/06/16 03:09:26;;;;;;;11.57;6.93;;;;;;;;;;4989418;28;20062;-60
2023/06/16 03:11:53;;;;;;;12.50;8.50;;;;;;;;;;4989580;28;20860;-60
2023/06/16 03:14:20;;;;;;;13.17;9.13;;;;;;;;;;4989471;28;20046;-60
2023/06/16 03:16:47;;;;;;;12.30;9.03;;;;;;;;;;4989173;28;20125;-60
2023/06/16 03:19:13;;;;;;;16.57;8.63;;;;;;;;;;4988538;28;20402;-60
2023/06/16 03:21:40;;;;;;;13.93;9.73;;;;;;;;;;4989371;28;20042;-60
2023/06/16 03:24:06;;;;;;;12.63;9.07;;;;;;;;;;4988981;28;20480;-61
2023/06/16 03:26:34;;;;;;;14.57;9.17;;;;;;;;;;4988662;28;20051;-60
2023/06/16 03:29:00;;;;;;;17.10;9.97;;;;;;;;;;4988905;28;20542;-61
2023/06/16 03:31:26;;;;;;;14.07;9.80;;;;;;;;;;4989265;28;20049;-60
2023/06/16 03:33:52;;;;;;;13.70;9.10;;;;;;;;;;4988137;28;20061;-60
2023/06/16 03:36:18;;;;;;;12.23;8.63;;;;;;;;;;4988894;28;20496;-60
2023/06/16 03:38:45;;;;;;;13.13;9.00;;;;;;;;;;4988924;28;20684;-60
2023/06/16 03:41:11;;;;;;;14.33;9.60;;;;;;;;;;4987349;28;20058;-60
2023/06/16 03:43:37;;;;;;;15.10;9.33;;;;;;;;;;4988587;28;20038;-60
2023/06/16 03:46:02;;;;;;;13.80;9.80;;;;;;;;;;4988984;28;20050;-60
2023/06/16 03:48:28;;;;;;;11.03;8.90;;;;;;;;;;4988679;28;20042;-61
2023/06/16 03:50:54;;;;;;;15.27;9.50;;;;;;;;;;4988383;28;20049;-60
2023/06/16 03:53:20;;;;;;;17.80;10.77;;;;;;;;;;4988767;28;20055;-60
2023/06/16 03:55:47;;;;;;;20.37;10.10;;;;;;;;;;4988444;28;20488;-60
2023/06/16 03:58:15;;;;;;;15.07;11.33;;;;;;;;;;4988320;28;20058;-60
2023/06/16 04:00:41;;;;;;;17.67;10.30;;;;;;;;;;4988894;28;20042;-60
2023/06/16 04:03:08;;;;;;;20.20;12.17;;;;;;;;;;4988525;28;20100;-60
2023/06/16 04:05:34;;;;;;;15.90;10.60;;;;;;;;;;4988035;28;20138;-60
2023/06/16 04:08:00;;;;;;;14.97;10.90;;;;;;;;;;4988249;28;20420;-61
2023/06/16 04:10:26;;;;;;;15.90;11.60;;;;;;;;;;4988612;28;20046;-60
2023/06/16 04:12:53;;;;;;;21.50;12.97;;;;;;;;;;4988761;28;20585;-60
2023/06/16 04:15:20;;;;;;;18.33;12.93;;;;;;;;;;4988612;28;20142;-60
2023/06/16 04:17:46;;;;;;;23.00;14.20;;;;;;;;;;4988474;28;20132;-60
2023/06/16 04:20:13;;;;;;;17.83;12.97;;;;;;;;;;4987972;28;20070;-61
2023/06/16 04:22:40;;;;;;;17.63;13.53;;;;;;;;;;4987898;28;20485;-60
2023/06/16 04:25:09;;;;;;;15.93;11.77;;;;;;;;;;4988150;28;20048;-60
2023/06/16 04:27:36;;;;;;;19.67;14.40;;;;;;;;;;4988138;28;20057;-61
2023/06/16 04:30:04;;;;;;;20.43;14.63;;;;;;;;;;4987829;28;20049;-60
2023/06/16 04:32:30;;;;;;;18.03;14.10;;;;;;;;;;4988317;28;20559;-60
2023/06/16 04:34:57;;;;;;;20.07;15.17;;;;;;;;;;4988008;28;20453;-61
2023/06/16 04:37:24;;;;;;;18.57;14.30;;;;;;;;;;4988185;28;20054;-61
2023/06/16 04:39:50;;;;;;;20.53;17.33;;;;;;;;;;4987830;28;20054;-60
2023/06/16 04:42:16;;;;;;;22.40;16.83;;;;;;;;;;4988267;28;20346;-61
2023/06/16 04:44:43;;;;;;;22.00;15.70;;;;;;;;;;4987996;28;20038;-60
2023/06/16 04:47:09;;;;;;;21.03;16.40;;;;;;;;;;4987891;28;20058;-61
2023/06/16 04:49:35;;;;;;;18.80;14.37;;;;;;;;;;4988026;28;20047;-60
2023/06/16 04:52:02;;;;;;;15.83;13.10;;;;;;;;;;4990602;28;20078;-60
2023/06/16 04:54:29;;;;;;;15.87;14.03;;;;;;;;;;4991602;28;20109;-60
2023/06/16 04:56:55;;;;;;;18.20;16.03;;;;;;;;;;4991611;28;20042;-60
2023/06/16 04:59:22;;;;;;;20.63;14.90;;;;;;;;;;4974334;28;20043;-61
2023/06/16 05:01:48;;;;;;;18.60;15.97;;;;;;;;;;4991643;28;20103;-60
2023/06/16 05:04:14;;;;;;;21.23;16.53;;;;;;;;;;4991631;28;20475;-61
2023/06/16 05:06:40;;;;;;;22.53;16.07;;;;;;;;;;4991425;28;20520;-61
2023/06/16 05:09:06;;;;;;;21.53;15.77;;;;;;;;;;4990870;28;20053;-61
2023/06/16 05:11:32;;;;;;;18.53;15.07;;;;;;;;;;4991434;28;20137;-60
2023/06/16 05:13:58;;;;;;;17.50;13.77;;;;;;;;;;4991550;28;20046;-61
2023/06/16 05:16:24;;;;;;;21.80;15.47;;;;;;;;;;4991628;28;20093;-61
2023/06/16 05:18:50;;;;;;;18.33;16.30;;;;;;;;;;4990974;28;20050;-61
2023/06/16 05:21:16;;;;;;;24.33;14.40;;;;;;;;;;4991468;28;20053;-61
2023/06/16 05:23:42;;;;;;;20.80;15.00;;;;;;;;;;4991223;28;20054;-61
2023/06/16 05:26:09;;;;;;;20.37;15.20;;;;;;;;;;4990451;28;20093;-61
2023/06/16 05:28:35;;;;;;;25.43;19.23;;;;;;;;;;4991165;28;20046;-61
2023/06/16 05:31:01;;;;;;;21.17;16.43;;;;;;;;;;4991178;28;20038;-61
2023/06/16 05:33:27;;;;;;;16.80;15.00;;;;;;;;;;4990280;28;20089;-61
2023/06/16 05:35:53;;;;;;;21.33;16.87;;;;;;;;;;4990580;28;20038;-61
2023/06/16 05:38:19;;;;;;;17.83;16.03;;;;;;;;;;4991050;28;20046;-61
2023/06/16 05:40:45;;;;;;;21.87;15.60;;;;;;;;;;4990416;28;20500;-60
2023/06/16 05:43:11;;;;;;;19.00;14.30;;;;;;;;;;4990649;28;20405;-61
2023/06/16 05:45:37;;;;;;;19.20;17.20;;;;;;;;;;4990670;28;20047;-61
2023/06/16 05:48:04;;;;;;;19.80;16.93;;;;;;;;;;4990733;28;20046;-61
2023/06/16 05:50:30;;;;;;;16.97;13.97;;;;;;;;;;4990568;28;20038;-61
2023/06/16 05:52:56;;;;;;;16.97;13.93;;;;;;;;;;4990634;28;20069;-61
2023/06/16 05:55:22;;;;;;;19.60;16.70;;;;;;;;;;4990096;28;20134;-62
2023/06/16 05:57:48;;;;;;;18.83;16.87;;;;;;;;;;4990394;28;20125;-61
2023/06/16 06:00:14;;;;;;;19.10;16.97;;;;;;;;;;4990593;28;20053;-61
2023/06/16 06:02:40;;;;;;;21.50;18.10;;;;;;;;;;4990038;28;20042;-61
2023/06/16 06:05:06;;;;;;;17.53;13.53;;;;;;;;;;4989806;28;20523;-61
2023/06/16 06:07:32;;;;;;;19.13;17.13;;;;;;;;;;4990206;28;20413;-61
2023/06/16 06:09:58;;;;;;;19.40;17.40;;;;;;;;;;4990321;28;20066;-61
2023/06/16 06:12:24;;;;;;;20.23;17.93;;;;;;;;;;4990017;28;20046;-61
2023/06/16 06:14:50;;;;;;;19.50;16.87;;;;;;;;;;4990261;28;20043;-61
2023/06/16 06:17:16;;;;;;;18.87;16.47;;;;;;;;;;4990111;28;20088;-61
2023/06/16 06:19:43;;;;;;;20.30;17.27;;;;;;;;;;4990325;28;20046;-61
2023/06/16 06:22:09;;;;;;;18.43;14.23;;;;;;;;;;4989614;28;20050;-61
2023/06/16 06:24:35;;;;;;;20.27;16.10;;;;;;;;;;4990022;28;20042;-61
2023/06/16 06:27:01;;;;;;;19.23;17.20;;;;;;;;;;4989586;28;20046;-61
2023/06/16 06:29:27;;;;;;;15.13;13.60;;;;;;;;;;4989827;28;20054;-61
2023/06/16 06:31:53;;;;;;;15.87;14.17;;;;;;;;;;4989511;28;20093;-61
2023/06/16 06:34:19;;;;;;;13.87;12.47;;;;;;;;;;4989736;28;20536;-61
2023/06/16 06:36:47;;;;;;;15.70;12.87;;;;;;;;;;4989613;28;20077;-61
2023/06/16 06:39:13;;;;;;;18.37;14.17;;;;;;;;;;4989800;28;20050;-61
2023/06/16 06:41:42;;;;;;;12.13;10.83;;;;;;;;;;4989692;28;20046;-61
2023/06/16 06:44:08;;;;;;;13.43;12.00;;;;;;;;;;4988912;28;20595;-61
2023/06/16 06:46:35;;;;;;;15.00;12.13;;;;;;;;;;4989397;28;20508;-62
2023/06/16 06:49:01;;;;;;;11.70;10.03;;;;;;;;;;4989450;28;20050;-62
2023/06/16 06:51:27;;;;;;;10.53;9.33;;;;;;;;;;4972302;28;20050;-62
2023/06/16 06:53:53;;;;;;;11.70;10.03;;;;;;;;;;4989545;28;20050;-62
2023/06/16 06:56:20;;;;;;;11.37;9.03;;;;;;;;;;4989057;28;20058;-62
2023/06/16 06:58:46;;;;;;;12.83;11.47;;;;;;;;;;4989617;28;20085;-62
2023/06/16 07:01:12;;;;;;;12.40;10.20;;;;;;;;;;4989216;28;20054;-62
2023/06/16 07:03:39;;;;;;;11.37;9.17;;;;;;;;;;4989280;28;20049;-62
2023/06/16 07:06:05;;;;;;;12.83;9.00;;;;;;;;;;4989305;28;20042;-62
2023/06/16 07:08:31;;;;;;;10.83;8.10;;;;;;;;;;4988750;28;20061;-61
2023/06/16 07:10:57;;;;;;;10.20;8.47;;;;;;;;;;4989107;28;20132;-62
2023/06/16 07:13:23;;;;;;;8.73;7.80;;;;;;;;;;4989569;28;20085;-61
2023/06/16 07:15:49;;;;;;;9.83;8.30;;;;;;;;;;4988385;28;20109;-62
2023/06/16 07:18:15;;;;;;;11.80;7.37;;;;;;;;;;4988983;28;20046;-62
2023/06/16 07:20:41;;;;;;;10.47;7.40;;;;;;;;;;4988779;28;20054;-62
2023/06/16 07:23:07;;;;;;;8.87;7.17;;;;;;;;;;4988814;28;20046;-62
2023/06/16 07:25:36;;;;;;;9.73;7.70;;;;;;;;;;4988968;28;20085;-61
2023/06/16 07:28:02;;;;;;;10.77;6.90;;;;;;;;;;4988711;28;20054;-62
2023/06/16 07:30:28;;;;;;;9.37;5.70;;;;;;;;;;4989025;28;20047;-62
2023/06/16 07:32:54;;;;;;;7.87;5.47;;;;;;;;;;4988407;28;20116;-62
2023/06/16 07:35:21;;;;;;;7.80;5.47;;;;;;;;;;4988872;28;20047;-62
2023/06/16 07:37:47;;;;;;;7.70;5.43;;;;;;;;;;4988690;28;20046;-62
2023/06/16 07:40:13;;;;;;;7.73;5.60;;;;;;;;;;4988602;28;20055;-61
2023/06/16 07:42:41;;;;;;;8.73;5.70;;;;;;;;;;4988776;28;20043;-62
2023/06/16 07:45:07;;;;;;;5.93;4.37;;;;;;;;;;4987862;28;20057;-62
2023/06/16 07:47:33;;;;;;;7.53;4.80;;;;;;;;;;4988616;28;20054;-62
2023/06/16 07:49:59;;;;;;;7.90;4.20;;;;;;;;;;4988840;28;20058;-62
2023/06/16 07:52:26;;;;;;;6.20;5.00;;;;;;;;;;4988735;28;20100;-61
2023/06/16 07:54:52;;;;;;;7.73;4.87;;;;;;;;;;4988019;28;20050;-61
2023/06/16 07:57:18;;;;;;;7.60;3.77;;;;;;;;;;4988623;28;20048;-61
2023/06/16 07:59:44;;;;;;;5.63;4.17;;;;;;;;;;4971256;28;20108;-61
2023/06/16 08:02:10;;;;;;;6.33;4.20;;;;;;;;;;4988606;28;20042;-62
2023/06/16 08:04:36;;;;;;;6.37;3.73;;;;;;;;;;4988085;28;20046;-62
2023/06/16 08:07:02;;;;;;;7.20;4.30;;;;;;;;;;4988388;28;20046;-62
2023/06/16 08:09:28;;;;;;;4.53;3.93;;;;;;;;;;4988403;28;20492;-62
2023/06/16 08:11:54;;;;;;;5.50;4.33;;;;;;;;;;4988460;28;20054;-62
2023/06/16 08:14:22;;;;;;;4.18;3.42;;;;;;;;;;4988936;28;20480;-62
2023/06/16 08:16:48;;;;;;;3.97;3.23;;;;;;;;;;4988277;28;20104;-62
2023/06/16 08:19:14;;;;;;;6.90;3.97;;;;;;;;;;4987822;28;20104;-62
2023/06/16 08:21:40;;;;;;;4.55;3.42;;;;;;;;;;4988238;28;20133;-62
2023/06/16 08:24:06;;;;;;;5.40;3.35;;;;;;;;;;4988251;28;20155;-62
2023/06/16 08:26:32;;;;;;;6.65;3.30;;;;;;;;;;4990391;28;20051;-62
2023/06/16 08:28:59;;;;;;;11.07;5.00;;;;;;;;;;4992009;28;20077;-62
2023/06/16 08:31:27;;;;;;;4.47;3.45;;;;;;;;;;4991967;28;20053;-62
2023/06/16 08:33:54;;;;;;;4.13;3.42;;;;;;;;;;4992167;28;20053;-62
2023/06/16 08:36:22;;;;;;;5.82;3.20;;;;;;;;;;4992013;28;20768;-62
2023/06/16 08:38:48;;;;;;;5.60;3.72;;;;;;;;;;4991924;28;20528;-62
2023/06/16 08:41:16;;;;;;;5.10;3.45;;;;;;;;;;4991475;28;20513;-62
2023/06/16 08:43:42;;;;;;;6.80;3.53;;;;;;;;;;4992017;28;20192;-62
2023/06/16 08:46:08;;;;;;;5.30;3.60;;;;;;;;;;4991772;28;20046;-62
2023/06/16 08:48:37;;;;;;;3.72;3.13;;;;;;;;;;4973899;28;20046;-62
2023/06/16 08:51:04;;;;;;;5.57;3.53;;;;;;;;;;4974449;28;20065;-62
2023/06/16 08:53:33;;;;;;;3.58;3.22;;;;;;;;;;4991921;28;20069;-62
2023/06/16 08:56:00;;;;;;;6.72;4.00;;;;;;;;;;4991285;28;20052;-62
2023/06/16 08:58:27;;;;;;;6.03;3.50;;;;;;;;;;4991507;28;20061;-62
2023/06/16 09:00:53;;;;;;;8.30;3.42;;;;;;;;;;4991472;28;20539;-62
2023/06/16 09:03:21;;;;;;;6.70;3.72;;;;;;;;;;4991698;28;20049;-62
2023/06/16 09:05:48;;;;;;;4.75;3.55;;;;;;;;;;4991541;28;20051;-62
2023/06/16 09:08:14;;;;;;;7.22;3.28;;;;;;;;;;4973176;28;20093;-62
2023/06/16 09:10:40;;;;;;;3.80;2.88;;;;;;;;;;4991461;28;20050;-62
2023/06/16 09:13:07;;;;;;;4.65;2.92;;;;;;;;;;4991410;28;20062;-62
2023/06/16 09:15:36;;;;;;;10.25;3.80;;;;;;;;;;4991411;28;20046;-62
2023/06/16 09:18:09;;;;;;;3.72;3.08;;;;;;;;;;4990905;28;20043;-63
2023/06/16 09:20:39;;;;;;;6.93;3.25;;;;;;;;;;4991555;28;20473;-62
2023/06/16 09:23:05;;;;;;;4.50;3.42;;;;;;;;;;4973808;28;20419;-62
2023/06/16 09:25:32;;;;;;;4.03;2.85;;;;;;;;;;4991257;28;20050;-62
2023/06/16 09:28:01;;;;;;;5.57;2.78;;;;;;;;;;4990994;28;20519;-62
2023/06/16 09:30:33;;;;;;;4.18;3.25;;;;;;;;;;4990719;28;20401;-63
2023/06/16 09:33:00;;;;;;;3.75;3.35;;;;;;;;;;4990800;28;20455;-63
2023/06/16 09:35:28;;;;;;;3.90;3.30;;;;;;;;;;4991015;28;20046;-63
2023/06/16 09:37:58;;;;;;;6.70;3.00;;;;;;;;;;4989417;28;20129;-62
2023/06/16 09:40:26;;;;;;;4.90;3.70;;;;;;;;;;4991195;28;20046;-63
2023/06/16 09:42:52;;;;;;;3.83;3.17;;;;;;;;;;4990930;28;20145;-63
2023/06/16 09:45:20;;;;;;;5.18;3.55;;;;;;;;;;4990482;28;20038;-63
2023/06/16 09:47:47;;;;;;;6.68;3.63;;;;;;;;;;4990683;28;20065;-63
2023/06/16 09:50:13;;;;;;;5.45;3.30;;;;;;;;;;4990289;28;20045;-62
2023/06/16 09:52:41;;;;;;;4.30;3.53;;;;;;;;;;4990611;28;20038;-62
2023/06/16 09:55:08;;;;;;;7.25;3.88;;;;;;;;;;4990696;28;20047;-63
2023/06/16 09:57:34;;;;;;;5.28;3.95;;;;;;;;;;4990362;28;20046;-63
2023/06/16 10:00:00;;;;;;;5.63;3.33;;;;;;;;;;4990431;28;20038;-63
2023/06/16 10:02:26;;;;;;;5.53;3.03;;;;;;;;;;4990141;28;20054;-63
2023/06/16 10:04:54;;;;;;;4.32;3.40;;;;;;;;;;4990365;28;20073;-64
2023/06/16 10:07:20;;;;;;;5.05;3.40;;;;;;;;;;4990435;28;20137;-63
2023/06/16 10:09:50;;;;;;;4.65;3.80;;;;;;;;;;4990549;28;20056;-62
2023/06/16 10:12:16;;;;;;;6.38;3.30;;;;;;;;;;4989915;28;20054;-63
2023/06/16 10:14:43;;;;;;;6.90;3.95;;;;;;;;;;4990238;28;20043;-63
2023/06/16 10:17:10;;;;;;;5.20;3.50;;;;;;;;;;4990337;28;20121;-63
2023/06/16 10:19:41;;;;;;;6.50;3.90;;;;;;;;;;4990255;28;20050;-62
2023/06/16 10:22:07;;;;;;;7.13;3.65;;;;;;;;;;4989904;28;20125;-62
2023/06/16 10:24:33;;;;;;;5.03;3.75;;;;;;;;;;4989937;28;20053;-62
2023/06/16 10:27:00;;;;;;;4.82;3.40;;;;;;;;;;4989914;28;20050;-62
2023/06/16 10:29:27;;;;;;;6.05;3.50;;;;;;;;;;4972598;28;20043;-62
2023/06/16 10:32:10;;;;;;;4.88;3.10;;;;;;;;;;4989803;28;20057;-62
2023/06/16 10:34:46;;;;;;;3.63;2.72;;;;;;;;;;4990137;28;20046;-62
2023/06/16 10:37:14;;;;;;;8.57;3.10;;;;;;;;;;4989416;28;20086;-62
2023/06/16 10:39:43;;;;;;;3.42;2.88;;;;;;;;;;4989765;28;20046;-62
2023/06/16 10:42:11;;;;;;;8.10;3.30;;;;;;;;;;4990109;28;20142;-62
2023/06/16 10:44:37;;;;;;;4.43;3.13;;;;;;;;;;4989971;28;20042;-62
2023/06/16 10:47:10;;;;;;;5.82;3.42;;;;;;;;;;4989316;28;20050;-62
2023/06/16 10:49:45;;;;;;;3.75;2.80;;;;;;;;;;4989097;28;20066;-63
2023/06/16 10:52:15;;;;;;;4.63;2.72;;;;;;;;;;4989356;28;20038;-62
2023/06/16 10:54:43;;;;;;;4.45;2.75;;;;;;;;;;4989637;28;20042;-63
2023/06/16 10:57:13;;;;;;;5.22;3.00;;;;;;;;;;4989359;28;20079;-63
2023/06/16 10:59:54;;;;;;;7.57;2.75;;;;;;;;;;4988652;28;20528;-62
2023/06/16 11:02:27;;;;;;;4.28;2.70;;;;;;;;;;4989622;28;20104;-63
2023/06/16 11:05:09;;;;;;;5.78;2.67;;;;;;;;;;4976226;28;20042;-62
2023/06/16 11:07:35;;;;;;;;;;;;;;;;;;4970547;28;20051;-62
2023/06/16 11:10:02;;;;;;;5.32;3.05;;;;;;;;;;4966094;28;19930;-62
2023/06/16 11:12:28;;;;;;;5.88;2.90;;;;;;;;;;4950858;29;20047;-63
2023/06/16 11:14:55;;;;;;;5.95;3.03;;;;;;;;;;4973352;28;20073;-62
2023/06/16 11:17:22;;;;;;;6.15;2.85;;;;;;;;;;4970524;28;20047;-63
2023/06/16 11:19:53;;;;;;;3.88;2.83;;;;;;;;;;4965307;28;20051;-62
2023/06/16 11:22:38;;;;;;;4.78;2.70;;;;;;;;;;4952197;28;20047;-62
2023/06/16 11:25:04;;;;;;;4.57;2.78;;;;;;;;;;4970225;28;20047;-62
2023/06/16 11:27:31;;;;;;;3.75;2.63;;;;;;;;;;4951382;28;20663;-63
2023/06/16 11:29:57;;;;;;;3.80;2.33;;;;;;;;;;4952033;28;20043;-62
2023/06/16 11:32:28;;;;;;;4.38;2.78;;;;;;;;;;4950154;28;20043;-63
2023/06/16 11:34:55;;;;;;;3.55;2.25;;;;;;;;;;4951463;28;20445;-63
2023/06/16 11:37:21;;;;;;;2.88;2.40;;;;;;;;;;4969932;28;20536;-63
2023/06/16 11:39:47;;;;;;;3.60;2.47;;;;;;;;;;4969171;28;20527;-63
2023/06/16 11:42:14;;;;;;;4.70;2.40;;;;;;;;;;4969427;28;20147;-63
2023/06/16 11:44:40;;;;;;;4.50;2.80;;;;;;;;;;4969722;28;20393;-62
2023/06/16 11:47:06;;;;;;;3.50;2.15;;;;;;;;;;4969046;28;20383;-63
2023/06/16 11:49:38;;;;;;;3.28;2.13;;;;;;;;;;4969132;28;20416;-63
2023/06/16 11:52:07;;;;;;;4.63;2.35;;;;;;;;;;4969447;28;20182;-63
2023/06/16 11:54:34;;;;;;;4.15;2.50;;;;;;;;;;4969590;28;20043;-63
2023/06/16 11:57:00;;;;;;;3.95;2.35;;;;;;;;;;4969622;28;20053;-63
2023/06/16 11:59:32;;;;;;;4.97;2.60;;;;;;;;;;4968890;28;20686;-63
2023/06/16 12:01:59;;;;;;;4.15;2.75;;;;;;;;;;4968253;28;20062;-63
2023/06/16 12:04:26;;;;;;;2.95;2.20;;;;;;;;;;4969392;28;20051;-63
2023/06/16 12:06:53;;;;;;;7.90;2.80;;;;;;;;;;4969064;28;20050;-63
2023/06/16 12:09:20;;;;;;;4.30;2.38;;;;;;;;;;4969306;28;20051;-63
2023/06/16 12:11:46;;;;;;;4.30;2.40;;;;;;;;;;4969240;28;20066;-63
2023/06/16 12:14:19;;;;;;;3.72;3.00;;;;;;;;;;4969578;28;20050;-63
2023/06/16 12:16:47;;;;;;;4.38;2.30;;;;;;;;;;4968716;28;20043;-63
2023/06/16 12:19:17;;;;;;;5.63;2.42;;;;;;;;;;4968932;28;20408;-63
2023/06/16 12:21:42;;;;;;;2.97;2.30;;;;;;;;;;4968874;28;20105;-63
2023/06/16 12:24:09;;;;;;;3.97;2.72;;;;;;;;;;4968827;28;20050;-62
2023/06/16 12:26:43;;;;;;;4.30;2.50;;;;;;;;;;4968885;28;20057;-63
2023/06/16 12:29:18;;;;;;;3.75;1.98;;;;;;;;;;4968457;28;20054;-63
2023/06/16 12:32:00;;;;;;;5.95;2.70;;;;;;;;;;4968995;28;20046;-63
2023/06/16 12:34:32;;;;;;;3.67;2.08;;;;;;;;;;4968719;28;20055;-64
2023/06/16 12:37:03;;;;;;;13.98;11.93;;;;;;;;;;4968461;28;20082;-64
2023/06/16 12:39:30;;;;;;;20.67;18.63;;;;;;;;;;4968904;28;20097;-64
2023/06/16 12:42:03;;;;;;;111.43;100.80;;;;;;;;;;4968185;28;20057;-64
2023/06/16 12:44:42;;;;;;;128.55;116.78;;;;;;;;;;4968742;28;20051;-64
2023/06/16 12:47:08;;;;;;;51.92;47.10;;;;;;;;;;4968693;28;20093;-64
2023/06/16 12:49:34;;;;;;;101.28;91.90;;;;;;;;;;4968511;28;20528;-64
2023/06/16 12:52:01;;;;;;;167.63;151.93;;;;;;;;;;4968551;28;20102;-64
2023/06/16 12:54:27;;;;;;;158.10;142.80;;;;;;;;;;4968228;28;20050;-63
2023/06/16 12:56:53;;;;;;;78.13;70.88;;;;;;;;;;4968477;28;20421;-64
2023/06/16 12:59:19;;;;;;;4.82;3.40;;;;;;;;;;4968552;28;20441;-64
2023/06/16 13:01:46;;;;;;;4.82;2.53;;;;;;;;;;4968613;28;20049;-64
2023/06/16 13:04:12;;;;;;;5.38;2.40;;;;;;;;;;4951097;28;20051;-64
2023/06/16 13:06:38;;;;;;;4.35;2.60;;;;;;;;;;4967913;28;20047;-64
2023/06/16 13:09:04;;;;;;;4.97;3.65;;;;;;;;;;4968596;28;20456;-64
2023/06/16 13:11:31;;;;;;;6.57;3.30;;;;;;;;;;4968765;28;20535;-64
2023/06/16 13:13:57;;;;;;;4.20;2.70;;;;;;;;;;4970809;28;20121;-64
2023/06/16 13:16:23;;;;;;;4.38;2.35;;;;;;;;;;4971760;28;20051;-63
2023/06/16 13:18:50;;;;;;;5.65;2.47;;;;;;;;;;4971760;28;20468;-63
2023/06/16 13:21:16;;;;;;;5.88;3.40;;;;;;;;;;4971756;28;20047;-63
2023/06/16 13:23:45;;;;;;;3.40;2.20;;;;;;;;;;4970971;28;20113;-63
2023/06/16 13:26:11;;;;;;;3.15;2.25;;;;;;;;;;4971550;28;20139;-63
2023/06/16 13:28:38;;;;;;;5.72;2.35;;;;;;;;;;4971918;28;20133;-63
2023/06/16 13:31:07;;;;;;;5.88;2.53;;;;;;;;;;4971266;28;20094;-63
2023/06/16 13:33:33;;;;;;;4.28;2.55;;;;;;;;;;4971626;28;20051;-63
2023/06/16 13:35:59;;;;;;;4.70;2.17;;;;;;;;;;4971286;28;20183;-63
2023/06/16 13:38:26;;;;;;;6.43;2.45;;;;;;;;;;4971433;28;20081;-63
2023/06/16 13:40:52;;;;;;;5.03;2.40;;;;;;;;;;4971163;28;20501;-63
2023/06/16 13:43:18;;;;;;;3.90;2.35;;;;;;;;;;4971406;28;20047;-63
2023/06/16 13:45:44;;;;;;;3.70;2.45;;;;;;;;;;4971347;28;20065;-63
2023/06/16 13:48:11;;;;;;;4.50;2.60;;;;;;;;;;4970593;28;20432;-63
2023/06/16 13:50:37;;;;;;;5.30;2.10;;;;;;;;;;4971230;28;20082;-63
2023/06/16 13:53:03;;;;;;;4.60;2.20;;;;;;;;;;4970936;28;20047;-63
2023/06/16 13:55:29;;;;;;;4.82;2.08;;;;;;;;;;4971209;28;20070;-63
2023/06/16 13:57:55;;;;;;;4.88;2.30;;;;;;;;;;4971071;28;20050;-63
2023/06/16 14:00:21;;;;;;;3.88;2.25;;;;;;;;;;4970561;28;20072;-63
2023/06/16 14:02:47;;;;;;;7.28;2.33;;;;;;;;;;4971301;28;20082;-63
2023/06/16 14:05:13;;;;;;;3.22;2.33;;;;;;;;;;4971291;28;20039;-63
2023/06/16 14:07:39;;;;;;;3.42;2.45;;;;;;;;;;4970891;28;20141;-63
2023/06/16 14:10:05;;;;;;;4.78;2.38;;;;;;;;;;4971003;28;20054;-63
2023/06/16 14:12:31;;;;;;;3.70;2.25;;;;;;;;;;4970965;28;20090;-63
2023/06/16 14:14:58;;;;;;;6.25;2.75;;;;;;;;;;4970294;28;20050;-63
2023/06/16 14:17:24;;;;;;;3.15;2.30;;;;;;;;;;4971046;28;20046;-63
2023/06/16 14:19:50;;;;;;;3.53;2.15;;;;;;;;;;4970745;28;20046;-63
2023/06/16 14:22:16;;;;;;;4.97;2.35;;;;;;;;;;4970623;28;20047;-63
2023/06/16 14:24:42;;;;;;;6.28;2.45;;;;;;;;;;4952345;28;20093;-63
2023/06/16 14:27:08;;;;;;;5.25;2.38;;;;;;;;;;4970609;28;20579;-63
2023/06/16 14:29:34;;;;;;;3.85;2.28;;;;;;;;;;4970758;28;20055;-63
2023/06/16 14:32:01;;;;;;;3.28;2.55;;;;;;;;;;4970471;28;20093;-63
2023/06/16 14:34:29;;;;;;;3.30;2.20;;;;;;;;;;4970692;28;20109;-63
2023/06/16 14:36:55;;;;;;;4.05;2.40;;;;;;;;;;4970561;28;20114;-63
2023/06/16 14:39:21;;;;;;;6.10;2.38;;;;;;;;;;4969791;28;20552;-63
2023/06/16 14:41:47;;;;;;;5.90;2.22;;;;;;;;;;4970211;28;20093;-63
2023/06/16 14:44:13;;;;;;;5.85;2.10;;;;;;;;;;4970170;28;20398;-63
2023/06/16 14:46:39;;;;;;;3.65;2.30;;;;;;;;;;4969993;28;20054;-63
2023/06/16 14:49:05;;;;;;;3.53;2.15;;;;;;;;;;4969986;28;20082;-63